Time;durP1;ratioP1;P1;durP2;ratioP2;P2;SDS_P1;SDS_P2;PMS_P1;PMS_P2;Temp;Humidity;BMP_temperature;BMP_pressure;BME280_temperature;BME280_humidity;BME280_pressure;Samples;Min_cycle;Max_cycle;Signal;HPM_P1;HPM_P2
2021/03/31 00:00:30;;;;;;;;;;;;;;;15.80;60.06;100954.66;4358981;32;21608;-87
2021/03/31 00:02:56;;;;;;;;;;;;;;;15.88;60.06;100949.19;4346731;32;20245;-87
2021/03/31 00:05:21;;;;;;;;;;;;;;;15.90;60.06;100950.84;4359442;32;20033;-87
2021/03/31 00:07:47;;;;;;;;;;;;;;;15.82;60.06;100947.59;4346922;33;20011;-88
2021/03/31 00:10:23;;;;;;;;;;;;;;;15.58;60.04;100946.66;4359201;32;20018;-87
2021/03/31 00:12:48;;;;;;;;;;;;;;;15.52;60.04;100946.84;4348343;33;19971;-88
2021/03/31 00:15:14;;;;;;;;;;;;;;;15.45;60.03;100929.59;4359364;32;19995;-87
2021/03/31 00:17:39;;;;;;;;;;;;;;;15.42;60.04;100929.69;4348181;33;20245;-87
2021/03/31 00:20:04;;;;;;;;;;;;;;;15.21;60.02;100938.28;4347687;33;25198;-88
2021/03/31 00:22:30;;;;;;;;;;;;;;;15.15;60.02;100933.22;4348269;33;19976;-88
2021/03/31 00:24:55;;;;;;;;;;;;;;;15.20;60.02;100932.16;4346494;33;20007;-88
2021/03/31 00:27:20;;;;;;;;;;;;;;;15.12;60.02;100928.91;4359253;32;20007;-88
2021/03/31 00:29:48;;;;;;;;;;;;;;;15.10;60.02;100924.63;4345928;33;33333;-88
2021/03/31 00:32:13;;;;;;;;;;;;;;;14.91;60.00;100924.38;4358845;32;20269;-87
2021/03/31 00:34:38;;;;;;;;;;;;;;;14.81;60.00;100922.91;4347932;33;20014;-88
2021/03/31 00:37:04;;;;;;;;;;;;;;;14.78;59.99;100925.63;4345939;33;34278;-88
2021/03/31 00:39:29;;;;;;;;;;;;;;;14.59;59.99;100920.09;4358819;32;20784;-88
2021/03/31 00:41:54;;;;;;;;;;;;;;;14.63;59.98;100922.56;4345355;33;33589;-88
2021/03/31 00:44:20;;;;;;;;;;;;;;;14.57;59.99;100925.37;4358897;32;20010;-88
2021/03/31 00:46:45;;;;;;;;;;;;;;;14.42;59.98;100916.16;4346497;33;20030;-87
2021/03/31 00:49:10;;;;;;;;;;;;;;;14.25;59.96;100922.81;4345878;33;29141;-88
2021/03/31 00:51:35;;;;;;;;;;;;;;;14.34;59.98;100915.53;4358160;32;33943;-88
2021/03/31 00:54:00;;;;;;;;;;;;;;;14.34;59.98;100923.41;4346266;33;20270;-88
2021/03/31 00:56:26;;;;;;;;;;;;;;;14.25;59.98;100921.03;4358863;32;20046;-88
2021/03/31 00:58:51;;;;;;;;;;;;;;;13.97;59.96;100923.59;4358154;32;25794;-87
2021/03/31 01:01:16;;;;;;;;;;;;;;;13.83;59.95;100929.19;4346932;33;30518;-88
2021/03/31 01:03:41;;;;;;;;;;;;;;;13.73;59.95;100925.09;4358112;32;31506;-87
2021/03/31 01:06:06;;;;;;;;;;;;;;;13.63;59.93;100920.97;4346459;32;20015;-88
2021/03/31 01:08:33;;;;;;;;;;;;;;;13.65;59.94;100918.31;4357914;32;31757;-88
2021/03/31 01:10:58;;;;;;;;;;;;;;;13.56;59.93;100921.19;4358665;32;19990;-89
2021/03/31 01:13:26;;;;;;;;;;;;;;;13.50;59.93;100923.06;4358913;32;19996;-89
2021/03/31 01:15:58;;;;;;;;;;;;;;;13.47;59.93;100922.25;4346539;33;20353;-87
2021/03/31 01:18:26;;;;;;;;;;;;;;;13.29;59.92;100923.59;4347802;33;20333;-87
2021/03/31 01:20:57;;;;;;;;;;;;;;;13.26;59.92;100921.06;4346296;33;19984;-87
2021/03/31 01:23:28;;;;;;;;;;;;;;;13.09;59.91;100921.44;4358675;32;19987;-87
2021/03/31 01:26:14;;;;;;;;;;;;;;;12.99;59.90;100908.59;4347600;33;19976;-87
2021/03/31 01:28:39;;;;;;;;;;;;;;;12.91;59.90;100920.09;4358726;32;19995;-88
2021/03/31 01:31:08;;;;;;;;;;;;;;;12.79;59.89;100922.13;4347582;33;20027;-88
2021/03/31 01:33:39;;;;;;;;;;;;;;;12.77;59.89;100914.31;4358564;32;20353;-88
2021/03/31 01:36:04;;;;;;;;;;;;;;;12.70;59.88;100915.34;4346080;33;19991;-88
2021/03/31 01:38:29;;;;;;;;;;;;;;;12.66;59.89;100911.09;4358111;32;20420;-88
2021/03/31 01:40:55;;;;;;;;;;;;;;;12.54;59.88;100917.44;4358621;32;19992;-88
2021/03/31 01:43:20;;;;;;;;;;;;;;;12.57;59.87;100919.13;4345840;33;20003;-88
2021/03/31 01:45:47;;;;;;;;;;;;;;;12.41;59.87;100915.97;4358548;32;19987;-88
2021/03/31 01:48:12;;;;;;;;;;;;;;;12.46;59.87;100915.88;4358520;32;20361;-88
2021/03/31 01:50:37;;;;;;;;;;;;;;;12.54;59.88;100920.06;4358435;32;20015;-88
2021/03/31 01:53:03;;;;;;;;;;;;;;;12.51;59.88;100914.87;4358409;32;20272;-88
2021/03/31 01:55:28;;;;;;;;;;;;;;;12.37;59.87;100909.09;4358554;32;20043;-88
2021/03/31 01:57:53;;;;;;;;;;;;;;;12.29;59.87;100911.00;4346084;33;20019;-88
2021/03/31 02:00:19;;;;;;;;;;;;;;;12.22;59.86;100920.72;4358149;32;23854;-89
2021/03/31 02:02:44;;;;;;;;;;;;;;;12.06;59.85;100919.28;4358493;32;19995;-88
2021/03/31 02:05:10;;;;;;;;;;;;;;;12.02;59.85;100917.63;4346090;33;20370;-88
2021/03/31 02:07:35;;;;;;;;;;;;;;;12.10;59.85;100920.09;4346058;32;20023;-88
2021/03/31 02:10:00;;;;;;;;;;;;;;;11.93;59.84;100920.44;4358453;32;19999;-88
2021/03/31 02:12:26;;;;;;;;;;;;;;;11.91;59.85;100919.59;4357513;32;33831;-88
2021/03/31 02:14:51;;;;;;;;;;;;;;;11.81;59.83;100918.87;4345871;33;20018;-89
2021/03/31 02:17:24;;;;;;;;;;;;;;;11.65;59.83;100922.66;4345989;33;20066;-88
2021/03/31 02:19:49;;;;;;;;;;;;;;;11.74;59.82;100927.69;4358278;32;19998;-89
2021/03/31 02:22:18;;;;;;;;;;;;;;;11.57;59.82;100920.16;4357818;32;26116;-88
2021/03/31 02:24:44;;;;;;;;;;;;;;;11.56;59.82;100921.03;4358297;32;19999;-89
2021/03/31 02:27:10;;;;;;;;;;;;;;;11.47;59.82;100920.34;4358334;32;20115;-89
2021/03/31 02:29:35;;;;;;;;;;;;;;;11.53;59.82;100926.31;4345932;33;20020;-88
2021/03/31 02:32:00;;;;;;;;;;;;;;;11.43;59.81;100922.16;4357505;32;27129;-88
2021/03/31 02:34:25;;;;;;;;;;;;;;;11.28;59.81;100931.06;4346703;33;20616;-89
2021/03/31 02:36:50;;;;;;;;;;;;;;;11.28;59.80;100927.59;4346669;33;23787;-89
2021/03/31 02:39:16;;;;;;;;;;;;;;;11.29;59.80;100927.56;4358117;32;20629;-89
2021/03/31 02:41:44;;;;;;;;;;;;;;;11.28;59.81;100923.25;4358260;32;20047;-87
2021/03/31 02:44:10;;;;;;;;;;;;;;;11.31;59.81;100924.94;4345808;33;19999;-89
2021/03/31 02:46:35;;;;;;;;;;;;;;;11.23;59.80;100926.81;4347095;33;20257;-88
2021/03/31 02:49:01;;;;;;;;;;;;;;;11.15;59.81;100926.97;4358159;32;19979;-89
2021/03/31 02:51:26;;;;;;;;;;;;;;;11.01;59.80;100926.28;4346984;33;19991;-88
2021/03/31 02:53:51;;;;;;;;;;;;;;;11.03;59.79;100928.00;4357294;32;34108;-88
2021/03/31 02:56:16;;;;;;;;;;;;;;;10.98;59.79;100928.94;4357518;32;21513;-88
2021/03/31 02:58:42;;;;;;;;;;;;;;;10.87;59.79;100926.47;4357293;32;27216;-87
2021/03/31 03:01:07;;;;;;;;;;;;;;;11.02;59.80;100923.66;4345340;33;20442;-87
2021/03/31 03:03:33;;;;;;;;;;;;;;;10.88;59.79;100930.81;4359115;32;29631;-88
2021/03/31 03:05:58;;;;;;;;;;;;;;;10.90;59.79;100925.59;4351909;33;20031;-88
2021/03/31 03:08:23;;;;;;;;;;;;;;;10.89;59.79;100916.06;4351737;33;20034;-89
2021/03/31 03:10:49;;;;;;;;;;;;;;;10.90;59.78;100915.19;4362675;32;20094;-87
2021/03/31 03:13:14;;;;;;;;;;;;;;;10.89;59.78;100919.53;4362353;32;27033;-88
2021/03/31 03:15:40;;;;;;;;;;;;;;;10.80;59.78;100918.78;4362889;32;20294;-88
2021/03/31 03:18:05;;;;;;;;;;;;;;;10.82;59.78;100907.47;4349456;33;32155;-88
2021/03/31 03:20:30;;;;;;;;;;;;;;;10.76;59.79;100911.03;4362091;32;30488;-90
2021/03/31 03:22:55;;;;;;;;;;;;;;;10.69;59.78;100912.00;4362019;32;30460;-87
2021/03/31 03:25:24;;;;;;;;;;;;;;;10.76;59.78;100902.34;4362868;32;20041;-88
2021/03/31 03:27:49;;;;;;;;;;;;;;;10.90;59.78;100902.16;4362737;32;19994;-88
2021/03/31 03:30:15;;;;;;;;;;;;;;;10.69;59.77;100903.34;4350311;33;19991;-88
2021/03/31 03:32:40;;;;;;;;;;;;;;;10.75;59.77;100905.84;4350228;33;20263;-88
2021/03/31 03:35:08;;;;;;;;;;;;;;;10.62;59.76;100906.88;4350179;33;20015;-88
2021/03/31 03:37:33;;;;;;;;;;;;;;;10.63;59.78;100903.38;4362384;32;19979;-88
2021/03/31 03:40:00;;;;;;;;;;;;;;;10.75;59.77;100901.50;4361577;32;29682;-88
2021/03/31 03:42:25;;;;;;;;;;;;;;;10.61;59.77;100899.94;4362207;32;20006;-88
2021/03/31 03:44:50;;;;;;;;;;;;;;;10.43;59.76;100909.75;4361452;32;31582;-88
2021/03/31 03:47:16;;;;;;;;;;;;;;;10.39;59.76;100904.56;4361391;32;31377;-88
2021/03/31 03:49:42;;;;;;;;;;;;;;;10.29;59.75;100905.59;4349667;33;20027;-88
2021/03/31 03:52:07;;;;;;;;;;;;;;;10.24;59.75;100907.41;4348973;33;33110;-86
2021/03/31 03:54:32;;;;;;;;;;;;;;;10.21;59.74;100908.28;4351149;33;19980;-88
2021/03/31 03:56:57;;;;;;;;;;;;;;;10.30;59.75;100907.31;4349385;33;20344;-87
2021/03/31 03:59:23;;;;;;;;;;;;;;;10.33;59.76;100912.47;4361596;32;19983;-89
2021/03/31 04:01:52;;;;;;;;;;;;;;;10.47;59.75;100912.31;4362020;32;20317;-88
2021/03/31 04:04:18;;;;;;;;;;;;;;;10.50;59.76;100910.53;4351223;33;19995;-90
2021/03/31 04:06:43;;;;;;;;;;;;;;;10.51;59.76;100906.19;4349505;33;19975;-87
2021/03/31 04:09:08;;;;;;;;;;;;;;;10.54;59.76;100900.94;4349235;33;19983;-88
2021/03/31 04:11:33;;;;;;;;;;;;;;;10.42;59.76;100907.16;4361875;32;20027;-89
2021/03/31 04:13:59;;;;;;;;;;;;;;;10.41;59.76;100908.91;4361953;32;19996;-88
2021/03/31 04:16:24;;;;;;;;;;;;;;;10.35;59.76;100916.78;4358350;32;19995;-86
2021/03/31 04:18:49;;;;;;;;;;;;;;;10.45;59.76;100908.00;4358676;32;31012;-86
2021/03/31 04:21:14;;;;;;;;;;;;;;;10.32;59.76;100908.16;4358761;32;20817;-86
2021/03/31 04:23:40;;;;;;;;;;;;;;;10.38;59.76;100905.47;4346480;33;20225;-86
2021/03/31 04:26:05;;;;;;;;;;;;;;;10.39;59.75;100901.97;4346093;33;22557;-86
2021/03/31 04:28:30;;;;;;;;;;;;;;;10.34;59.76;100904.66;4345866;33;31996;-86
2021/03/31 04:30:55;;;;;;;;;;;;;;;10.18;59.75;100903.09;4346545;33;19995;-85
2021/03/31 04:33:21;;;;;;;;;;;;;;;9.99;59.73;100907.66;4358298;32;31385;-85
2021/03/31 04:35:46;;;;;;;;;;;;;;;10.05;59.74;100915.37;4347254;33;28870;-86
2021/03/31 04:38:12;;;;;;;;;;;;;;;10.04;59.74;100915.37;4358838;32;19980;-86
2021/03/31 04:40:57;;;;;;;;;;;;;;;10.04;59.74;100915.37;4358855;32;20022;-84
2021/03/31 04:43:23;;;;;;;;;;;;;;;10.21;59.75;100905.69;4347549;32;20324;-87
2021/03/31 04:45:48;;;;;;;;;;;;;;;10.22;59.74;100910.00;4346475;33;20043;-87
2021/03/31 04:48:14;;;;;;;;;;;;;;;10.05;59.74;100904.97;4358669;32;20404;-86
2021/03/31 04:50:39;;;;;;;;;;;;;;;10.03;59.74;100914.53;4347805;33;20270;-86
2021/03/31 04:53:05;;;;;;;;;;;;;;;10.14;59.74;100915.25;4358802;32;19995;-86
2021/03/31 04:55:30;;;;;;;;;;;;;;;10.20;59.74;100919.56;4358922;32;19980;-86
2021/03/31 04:57:55;;;;;;;;;;;;;;;10.34;59.75;100911.59;4358813;32;20013;-86
2021/03/31 05:00:21;;;;;;;;;;;;;;;10.33;59.76;100917.69;4358303;32;26239;-85
2021/03/31 05:02:46;;;;;;;;;;;;;;;10.35;59.75;100910.72;4358896;32;20645;-86
2021/03/31 05:05:11;;;;;;;;;;;;;;;10.40;59.76;100911.50;4346151;33;23364;-87
2021/03/31 05:07:36;;;;;;;;;;;;;;;10.58;59.77;100903.47;4346344;33;20031;-86
2021/03/31 05:10:02;;;;;;;;;;;;;;;10.53;59.76;100907.87;4346043;33;20386;-86
2021/03/31 05:12:27;;;;;;;;;;;;;;;10.42;59.76;100910.63;4358595;32;19994;-85
2021/03/31 05:14:52;;;;;;;;;;;;;;;10.56;59.77;100910.44;4358805;32;20010;-86
2021/03/31 05:17:18;;;;;;;;;;;;;;;10.57;59.77;100903.47;4346345;33;20015;-86
2021/03/31 05:19:43;;;;;;;;;;;;;;;10.61;59.76;100902.56;4346213;33;20003;-86
2021/03/31 05:22:08;;;;;;;;;;;;;;;10.88;59.78;100898.69;4347143;33;27895;-86
2021/03/31 05:24:33;;;;;;;;;;;;;;;10.85;59.78;100902.22;4346908;33;28780;-86
2021/03/31 05:26:58;;;;;;;;;;;;;;;10.86;59.78;100905.66;4357753;32;20415;-86
2021/03/31 05:29:24;;;;;;;;;;;;;;;10.95;59.79;100902.94;4347561;33;19999;-86
2021/03/31 05:31:49;;;;;;;;;;;;;;;11.16;59.80;100904.38;4358360;32;24458;-86
2021/03/31 05:34:14;;;;;;;;;;;;;;;11.23;59.80;100906.84;4346912;33;31477;-86
2021/03/31 05:36:39;;;;;;;;;;;;;;;11.35;59.80;100904.00;4346344;33;19984;-86
2021/03/31 05:39:05;;;;;;;;;;;;;;;11.33;59.81;100910.12;4346384;33;20027;-87
2021/03/31 05:41:30;;;;;;;;;;;;;;;11.49;59.81;100908.16;4347758;33;19991;-87
2021/03/31 05:43:55;;;;;;;;;;;;;;;11.51;59.81;100908.97;4358482;32;19990;-86
2021/03/31 05:46:21;;;;;;;;;;;;;;;11.72;59.83;100910.34;4347543;33;19979;-87
2021/03/31 05:48:46;;;;;;;;;;;;;;;11.81;59.83;100912.81;4347537;33;20029;-86
2021/03/31 05:51:11;;;;;;;;;;;;;;;11.85;59.84;100904.94;4358233;32;25664;-87
2021/03/31 05:53:36;;;;;;;;;;;;;;;11.97;59.84;100909.03;4345635;33;25983;-85
2021/03/31 05:56:04;;;;;;;;;;;;;;;12.03;59.84;100908.03;4357832;32;30313;-86
2021/03/31 05:58:29;;;;;;;;;;;;;;;12.07;59.85;100913.19;4358265;32;19991;-86
2021/03/31 06:00:55;;;;;;;;;;;;;;;12.30;59.86;100912.72;4358115;32;22491;-86
2021/03/31 06:03:21;;;;;;;;;;;;;;;12.49;59.87;100911.44;4345518;33;20055;-87
2021/03/31 06:05:46;;;;;;;;;;;;;;;12.63;59.88;100903.31;4345865;33;20002;-86
2021/03/31 06:08:11;;;;;;;;;;;;;;;12.85;59.89;100907.16;4358337;32;20292;-86
2021/03/31 06:10:37;;;;;;;;;;;;;;;12.83;59.89;100913.34;4357525;32;27478;-86
2021/03/31 06:13:04;;;;;;;;;;;;;;;13.16;59.90;100907.31;4358208;32;20011;-86
2021/03/31 06:15:41;;;;;;;;;;;;;;;13.12;59.91;100908.28;4358299;32;20059;-86
2021/03/31 06:18:07;;;;;;;;;;;;;;;13.33;59.91;100899.09;4358013;32;20003;-87
2021/03/31 06:20:58;;;;;;;;;;;;;;;13.42;59.92;100898.84;4345757;33;20006;-86
2021/03/31 06:24:01;;;;;;;;;;;;;;;13.65;59.94;100884.31;4347173;33;19994;-86
2021/03/31 06:26:30;;;;;;;;;;;;;;;13.85;59.94;100884.63;4356277;32;19979;-85
2021/03/31 06:29:21;;;;;;;;;;;;;;;14.12;59.96;100889.09;4358243;32;20050;-86
2021/03/31 06:31:47;;;;;;;;;;;;;;;14.11;59.96;100882.16;4344901;32;20054;-84
2021/03/31 06:34:17;;;;;;;;;;;;;;;14.33;59.96;100877.16;4346689;33;19994;-85
2021/03/31 06:36:43;;;;;;;;;;;;;;;14.35;59.98;100883.19;4345264;33;20042;-85
2021/03/31 06:39:15;;;;;;;;;;;;;;;14.68;59.99;100877.91;4356617;32;20042;-87
2021/03/31 06:41:41;;;;;;;;;;;;;;;14.93;60.00;100865.72;4357664;32;20337;-85
2021/03/31 06:44:15;;;;;;;;;;;;;;;15.14;60.01;100868.53;4357431;32;20014;-87
2021/03/31 06:46:52;;;;;;;;;;;;;;;15.27;60.02;100864.63;4356851;32;20548;-86
2021/03/31 06:49:17;;;;;;;;;;;;;;;15.35;60.03;100866.06;4356431;32;20002;-87
2021/03/31 06:51:43;;;;;;;;;;;;;;;15.50;60.04;100853.34;4357032;32;20336;-86
2021/03/31 06:54:15;;;;;;;;;;;;;;;15.59;60.03;100856.53;4346457;33;19998;-85
2021/03/31 06:56:40;;;;;;;;;;;;;;;15.63;60.05;100854.66;4357364;32;20017;-86
2021/03/31 06:59:05;;;;;;;;;;;;;;;15.91;60.05;100852.75;4357305;32;19991;-87
2021/03/31 07:01:31;;;;;;;;;;;;;;;16.11;60.07;100857.28;4346262;33;20015;-86
2021/03/31 07:03:57;;;;;;;;;;;;;;;16.33;60.08;100854.72;4357092;32;20008;-86
2021/03/31 07:06:22;;;;;;;;;;;;;;;16.52;60.09;100852.22;4345889;33;20009;-85
2021/03/31 07:08:47;;;;;;;;;;;;;;;16.62;60.10;100855.34;4345835;33;20014;-87
2021/03/31 07:11:13;;;;;;;;;;;;;;;16.77;60.11;100854.75;4345879;33;20031;-86
2021/03/31 07:13:38;;;;;;;;;;;;;;;17.03;60.12;100853.72;4344221;33;19999;-86
2021/03/31 07:16:04;;;;;;;;;;;;;;;17.14;60.11;100847.09;4345803;33;20047;-86
2021/03/31 07:18:30;;;;;;;;;;;;;;;17.16;60.13;100847.03;4345808;33;20013;-86
2021/03/31 07:20:55;;;;;;;;;;;;;;;17.41;60.14;100842.44;4356952;32;20007;-86
2021/03/31 07:23:24;;;;;;;;;;;;;;;17.70;60.15;100838.56;4357001;32;20035;-86
2021/03/31 07:25:49;;;;;;;;;;;;;;;17.85;60.16;100837.03;4345844;33;19998;-85
2021/03/31 07:28:16;;;;;;;;;;;;;;;17.99;60.16;100823.28;4344269;33;20027;-86
2021/03/31 07:30:41;;;;;;;;;;;;;;;18.23;60.18;100827.41;4356744;32;19999;-86
2021/03/31 07:33:16;;;;;;;;;;;;;;;18.22;60.17;100830.13;4356732;32;20280;-84
2021/03/31 07:35:41;;;;;;;;;;;;;;;18.39;60.19;100831.00;4356306;32;19983;-85
2021/03/31 07:38:07;;;;;;;;;;;;;;;18.56;60.20;100824.94;4344088;33;20006;-85
2021/03/31 07:40:33;;;;;;;;;;;;;;;18.75;60.21;100821.47;4356496;32;20372;-86
2021/03/31 07:43:24;;;;;;;;;;;;;;;18.82;60.21;100814.94;4355969;32;20413;-84
2021/03/31 07:45:55;;;;;;;;;;;;;;;19.14;60.23;100822.09;4344216;32;19971;-85
2021/03/31 07:48:20;;;;;;;;;;;;;;;19.45;60.24;100813.50;4356809;32;19991;-85
2021/03/31 07:50:45;;;;;;;;;;;;;;;19.28;60.23;100818.78;4345364;33;27988;-86
2021/03/31 07:53:11;;;;;;;;;;;;;;;19.51;60.25;100814.97;4358503;32;32190;-84
2021/03/31 07:55:37;;;;;;;;;;;;;;;19.63;60.26;100809.06;4359156;32;20334;-84
2021/03/31 07:58:21;;;;;;;;;;;;;;;19.67;60.25;100812.41;4359494;32;20432;-86
2021/03/31 08:01:02;;;;;;;;;;;;;;;19.86;60.27;100816.63;4346855;33;19991;-86
2021/03/31 08:03:28;;;;;;;;;;;;;;;19.93;60.27;100820.66;4348344;33;19994;-85
2021/03/31 08:06:05;;;;;;;;;;;;;;;20.19;60.29;100823.69;4359271;32;20355;-86
2021/03/31 08:08:38;;;;;;;;;;;;;;;20.28;60.29;100815.22;4348293;33;20002;-85
2021/03/31 08:11:03;;;;;;;;;;;;;;;20.45;60.30;100815.19;4359090;32;20568;-86
2021/03/31 08:13:28;;;;;;;;;;;;;;;20.62;60.31;100814.25;4346782;33;19991;-85
2021/03/31 08:15:54;;;;;;;;;;;;;;;20.81;60.32;100819.31;4346563;33;20026;-86
2021/03/31 08:18:20;;;;;;;;;;;;;;;21.09;60.34;100810.66;4359114;32;20006;-86
2021/03/31 08:20:45;;;;;;;;;;;;;;;21.14;60.33;100814.72;4359038;32;20054;-85
2021/03/31 08:23:11;;;;;;;;;;;;;;;21.22;60.33;100810.75;4359232;32;19988;-86
2021/03/31 08:25:36;;;;;;;;;;;;;;;21.50;60.36;100809.97;4352637;32;20545;-85
2021/03/31 08:28:05;;;;;;;;;;;;;;;21.42;60.35;100808.66;4358438;32;20010;-84
2021/03/31 08:30:30;;;;;;;;;;;;;;;21.61;60.35;100804.91;4345442;33;20054;-85
2021/03/31 08:32:56;;;;;;;;;;;;;;;21.82;60.37;100805.38;4347868;33;19988;-85
2021/03/31 08:35:25;;;;;;;;;;;;;;;21.70;60.37;100801.69;4347356;33;20029;-84
2021/03/31 08:37:50;;;;;;;;;;;;;;;21.85;60.37;100799.87;4358571;32;19988;-86
2021/03/31 08:40:15;;;;;;;;;;;;;;;22.09;60.39;100790.44;4347572;33;20009;-85
2021/03/31 08:42:51;;;;;;;;;;;;;;;22.13;60.39;100791.94;4358664;32;19983;-86
2021/03/31 08:45:27;;;;;;;;;;;;;;;22.11;60.39;100788.53;4358747;32;19988;-86
2021/03/31 08:47:53;;;;;;;;;;;;;;;22.23;60.39;100795.69;4358563;32;19996;-86
2021/03/31 08:50:23;;;;;;;;;;;;;;;22.31;60.40;100798.72;4347663;33;19995;-85
2021/03/31 08:52:49;;;;;;;;;;;;;;;22.24;60.39;100797.44;4347852;33;20081;-86
2021/03/31 08:55:14;;;;;;;;;;;;;;;22.25;60.40;100793.81;4358634;32;20019;-86
2021/03/31 08:57:39;;;;;;;;;;;;;;;22.32;60.40;100797.78;4347616;33;19999;-85
2021/03/31 09:00:06;;;;;;;;;;;;;;;22.40;60.40;100788.47;4346038;33;20042;-86
2021/03/31 09:02:34;;;;;;;;;;;;;;;22.47;60.41;100793.25;4345698;33;19991;-85
2021/03/31 09:04:59;;;;;;;;;;;;;;;22.70;60.42;100785.59;4347682;33;20018;-86
2021/03/31 09:07:25;;;;;;;;;;;;;;;22.79;60.42;100787.66;4358367;32;20348;-85
2021/03/31 09:09:50;;;;;;;;;;;;;;;22.80;60.43;100781.41;4345974;33;20025;-86
2021/03/31 09:12:16;;;;;;;;;;;;;;;22.89;60.43;100780.81;4358377;32;19988;-85
2021/03/31 09:14:46;;;;;;;;;;;;;;;23.04;60.44;100776.28;4346006;33;20401;-85
2021/03/31 09:17:17;;;;;;;;;;;;;;;23.14;60.44;100775.53;4345965;33;20007;-85
2021/03/31 09:19:42;;;;;;;;;;;;;;;23.13;60.45;100767.69;4358444;32;20281;-85
2021/03/31 09:22:08;;;;;;;;;;;;;;;23.29;60.45;100765.69;4347378;33;20009;-85
2021/03/31 09:24:34;;;;;;;;;;;;;;;23.12;60.45;100766.84;4357997;32;19987;-86
2021/03/31 09:27:00;;;;;;;;;;;;;;;23.21;60.45;100760.91;4347359;33;20357;-85
2021/03/31 09:29:25;;;;;;;;;;;;;;;23.30;60.45;100762.06;4347307;33;19983;-86
2021/03/31 09:31:51;;;;;;;;;;;;;;;23.60;60.47;100753.81;4358263;32;19997;-85
2021/03/31 09:34:17;;;;;;;;;;;;;;;23.78;60.47;100741.87;4358605;32;19991;-86
2021/03/31 09:36:42;;;;;;;;;;;;;;;23.66;60.48;100749.84;4358443;32;19995;-85
2021/03/31 09:39:10;;;;;;;;;;;;;;;23.90;60.49;100745.47;4345535;33;21161;-86
2021/03/31 09:41:36;;;;;;;;;;;;;;;24.19;60.49;100741.56;4358258;32;19983;-85
2021/03/31 09:44:01;;;;;;;;;;;;;;;24.36;60.50;100736.81;4345835;33;20398;-85
2021/03/31 09:46:26;;;;;;;;;;;;;;;24.20;60.51;100734.44;4358352;32;20051;-85
2021/03/31 09:48:52;;;;;;;;;;;;;;;24.09;60.49;100729.03;4358246;32;19984;-85
2021/03/31 09:51:18;;;;;;;;;;;;;;;24.15;60.49;100732.09;4358255;32;19984;-86
2021/03/31 09:53:44;;;;;;;;;;;;;;;24.07;60.50;100728.28;4358157;32;19984;-86
2021/03/31 09:56:10;;;;;;;;;;;;;;;24.37;60.51;100727.88;4345656;33;20007;-86
2021/03/31 09:58:35;;;;;;;;;;;;;;;24.54;60.51;100724.81;4347247;33;20014;-85
2021/03/31 10:01:00;;;;;;;;;;;;;;;24.78;60.53;100712.31;4358071;32;20039;-85
2021/03/31 10:03:27;;;;;;;;;;;;;;;24.95;60.54;100716.38;4346433;33;28394;-85
2021/03/31 10:05:52;;;;;;;;;;;;;;;25.03;60.54;100710.47;4347133;33;19983;-85
2021/03/31 10:08:21;;;;;;;;;;;;;;;25.11;60.55;100712.56;4346216;33;23672;-86
2021/03/31 10:10:47;;;;;;;;;;;;;;;24.97;60.54;100706.44;4357798;32;20372;-86
2021/03/31 10:13:15;;;;;;;;;;;;;;;25.14;60.56;100697.19;4345180;33;19995;-86
2021/03/31 10:15:46;;;;;;;;;;;;;;;25.20;60.55;100698.50;4357879;32;19979;-86
2021/03/31 10:18:11;;;;;;;;;;;;;;;25.25;60.56;100699.00;4345781;33;20019;-86
2021/03/31 10:20:42;;;;;;;;;;;;;;;25.27;60.56;100692.56;4345679;33;20003;-85
2021/03/31 10:23:24;;;;;;;;;;;;;;;25.46;60.57;100689.31;4345771;33;20001;-86
2021/03/31 10:25:49;;;;;;;;;;;;;;;25.64;60.57;100681.69;4345631;33;20042;-85
2021/03/31 10:28:33;;;;;;;;;;;;;;;25.72;60.58;100684.59;4346685;33;20027;-86
2021/03/31 10:31:16;;;;;;;;;;;;;;;25.93;60.60;100679.34;4358088;32;20015;-85
2021/03/31 10:33:41;;;;;;;;;;;;;;;25.89;60.59;100681.44;4357958;32;19983;-85
2021/03/31 10:36:06;;;;;;;;;;;;;;;26.06;60.60;100677.41;4357283;32;20901;-86
2021/03/31 10:38:41;;;;;;;;;;;;;;;26.11;60.60;100675.19;4358032;32;19988;-84
2021/03/31 10:41:28;;;;;;;;;;;;;;;26.05;60.60;100666.84;4356930;32;19971;-86
2021/03/31 10:47:16;;;;;;;;;;;;;;;26.22;60.61;100664.47;4356104;32;20039;-87
2021/03/31 10:52:03;;;;;;;;;;;;;;;26.35;60.61;100658.16;4357512;32;20128;-86
2021/03/31 10:54:29;;;;;;;;;;;;;;;26.43;60.62;100655.69;4346700;33;20313;-85
2021/03/31 10:57:05;;;;;;;;;;;;;;;26.46;60.62;100642.91;4357347;32;20034;-86
2021/03/31 10:59:31;;;;;;;;;;;;;;;26.55;60.63;100647.50;4345455;33;20014;-87
2021/03/31 11:01:56;;;;;;;;;;;;;;;26.67;60.63;100642.06;4345541;33;19980;-86
2021/03/31 11:04:21;;;;;;;;;;;;;;;26.84;60.64;100636.16;4345646;33;20023;-87
2021/03/31 11:06:46;;;;;;;;;;;;;;;26.90;60.64;100632.94;4346206;33;28310;-86
2021/03/31 11:09:11;;;;;;;;;;;;;;;26.94;60.64;100631.69;4344904;33;30385;-86
2021/03/31 11:11:37;;;;;;;;;;;;;;;26.99;60.64;100628.66;4339312;33;22513;-86
2021/03/31 11:14:02;;;;;;;;;;;;;;;27.08;60.65;100625.19;4356498;32;23803;-85
2021/03/31 11:16:27;;;;;;;;;;;;;;;26.98;60.65;100622.44;4345716;33;25038;-84
2021/03/31 11:26:36;;;;;;;;;;;;;;;26.95;60.65;100609.34;4357621;32;20002;-85
2021/03/31 11:29:01;;;;;;;;;;;;;;;26.97;60.64;100607.38;4346925;33;19995;-85
2021/03/31 11:31:26;;;;;;;;;;;;;;;27.06;60.65;100600.44;4358902;32;22881;-85
2021/03/31 11:33:53;;;;;;;;;;;;;;;27.02;60.66;100589.16;4346414;33;20007;-85
2021/03/31 11:36:18;;;;;;;;;;;;;;;27.06;60.65;100605.78;4348283;33;20591;-84
2021/03/31 11:38:44;;;;;;;;;;;;;;;26.99;60.65;100600.13;4359279;32;20377;-85
2021/03/31 11:41:09;;;;;;;;;;;;;;;27.02;60.65;100585.66;4346875;32;19997;-85
2021/03/31 11:43:34;;;;;;;;;;;;;;;27.20;60.66;100589.34;4348234;33;20023;-84
2021/03/31 11:46:00;;;;;;;;;;;;;;;27.18;60.66;100586.81;4346123;33;26702;-84
2021/03/31 11:48:25;;;;;;;;;;;;;;;27.01;60.65;100587.47;4348188;33;20274;-84
2021/03/31 11:50:50;;;;;;;;;;;;;;;27.19;60.66;100585.84;4348264;33;20015;-84
2021/03/31 11:53:15;;;;;;;;;;;;;;;27.34;60.68;100585.47;4358757;32;29543;-84
2021/03/31 11:55:41;;;;;;;;;;;;;;;27.38;60.67;100589.56;4347438;33;26725;-84
2021/03/31 11:58:06;;;;;;;;;;;;;;;27.16;60.66;100577.25;4359238;32;20387;-84
2021/03/31 12:00:31;;;;;;;;;;;;;;;27.28;60.68;100576.19;4358835;32;20009;-84
2021/03/31 12:02:57;;;;;;;;;;;;;;;27.38;60.67;100576.19;4347795;33;19987;-84
2021/03/31 12:05:22;;;;;;;;;;;;;;;27.36;60.67;100570.97;4346265;33;20729;-85
2021/03/31 12:07:47;;;;;;;;;;;;;;;27.27;60.67;100573.66;4347731;33;20007;-85
2021/03/31 12:10:12;;;;;;;;;;;;;;;27.35;60.68;100563.94;4346059;33;20279;-84
2021/03/31 12:12:38;;;;;;;;;;;;;;;27.32;60.67;100560.72;4346226;33;20013;-84
2021/03/31 12:15:04;;;;;;;;;;;;;;;27.40;60.67;100547.50;4358705;32;20027;-84
2021/03/31 12:17:29;;;;;;;;;;;;;;;27.22;60.67;100552.66;4347672;33;19979;-84
2021/03/31 12:19:54;;;;;;;;;;;;;;;26.98;60.65;100544.12;4347633;33;20395;-84
2021/03/31 12:22:20;;;;;;;;;;;;;;;27.03;60.66;100542.75;4358861;32;19991;-85
2021/03/31 12:24:45;;;;;;;;;;;;;;;27.15;60.66;100532.78;4347039;33;26050;-85
2021/03/31 12:27:14;;;;;;;;;;;;;;;27.25;60.66;100530.16;4347342;33;20011;-87
2021/03/31 12:29:39;;;;;;;;;;;;;;;27.39;60.67;100521.72;4347765;33;19980;-86
2021/03/31 12:32:05;;;;;;;;;;;;;;;27.34;60.67;100524.81;4347717;33;20038;-86
2021/03/31 12:34:32;;;;;;;;;;;;;;;27.38;60.67;100520.88;4345754;33;19995;-86
2021/03/31 12:36:58;;;;;;;;;;;;;;;27.44;60.68;100523.00;4345438;33;20003;-86
2021/03/31 12:39:23;;;;;;;;;;;;;;;27.36;60.67;100516.66;4347470;33;20030;-86
2021/03/31 12:41:48;;;;;;;;;;;;;;;27.16;60.66;100511.28;4358425;32;20030;-86
2021/03/31 12:44:15;;;;;;;;;;;;;;;27.21;60.67;100511.72;4347621;33;19988;-87
2021/03/31 12:46:40;;;;;;;;;;;;;;;27.32;60.67;100499.22;4347551;33;20059;-86